This is the latest recevied weather packets stored in our database for station/object KC7UNY-13. If no packets are shown the sender has not sent any weather packets the latest 10 day(s).
| Time | Temp. | Humidity | Pressure | Rain* | Wind** | Luminosity | Snow |
|---|---|---|---|---|---|---|---|
| 1778012933 | 23.89° C | 36% | 1010.9 hPa | 0 mm | - | 279 W/m² | - |
| 1778012629 | 23.89° C | 38% | 1010.9 hPa | 0 mm | - | 223 W/m² | - |
| 1778012326 | 25° C | 37% | 1010.9 hPa | 0 mm | - | 224 W/m² | - |
| 1778012023 | 25.56° C | 37% | 1010.7 hPa | 0 mm | - | 875 W/m² | - |
| 1778011722 | 25° C | 40% | 1010.9 hPa | 0 mm | - | 881 W/m² | - |
| 1778011418 | 25° C | 39% | 1011.1 hPa | 0 mm | - | 903 W/m² | - |
| 1778011114 | 24.44° C | 40% | 1011 hPa | 0 mm | - | 908 W/m² | - |
| 1778010811 | 24.44° C | 40% | 1011 hPa | 0 mm | - | 895 W/m² | - |
| 1778010508 | 23.89° C | 41% | 1011.1 hPa | 0 mm | - | 875 W/m² | - |
| 1778010206 | 23.89° C | 41% | 1011.2 hPa | 0 mm | - | 859 W/m² | - |
| 1778009900 | 23.89° C | 41% | 1011.3 hPa | 0 mm | - | 870 W/m² | - |
| 1778009599 | 23.89° C | 40% | 1011.3 hPa | 0 mm | - | 962 W/m² | - |
| 1778009296 | 23.89° C | 41% | 1011.3 hPa | 0 mm | - | 264 W/m² | - |
| 1778008994 | 22.78° C | 44% | 1011.2 hPa | 0 mm | - | 268 W/m² | - |
| 1778008692 | 22.78° C | 42% | 1011.4 hPa | 0 mm | - | 231 W/m² | - |
| 1778008390 | 22.78° C | 42% | 1011.3 hPa | 0 mm | - | 266 W/m² | - |
| 1778008086 | 23.33° C | 41% | 1011.5 hPa | 0 mm | - | 196 W/m² | - |
| 1778007782 | 23.33° C | 42% | 1011.6 hPa | 0 mm | - | 441 W/m² | - |
| 1778007478 | 23.89° C | 42% | 1011.5 hPa | 0 mm | - | 596 W/m² | - |
| 1778007174 | 23.33° C | 42% | 1011.8 hPa | 0 mm | - | 778 W/m² | - |
| 1778006870 | 23.33° C | 43% | 1011.6 hPa | 0 mm | - | 161 W/m² | - |
| 1778006568 | 23.33° C | 42% | 1011.7 hPa | 0 mm | - | 816 W/m² | - |
| 1778006264 | 23.33° C | 42% | 1011.7 hPa | 0 mm | - | 812 W/m² | - |
| 1778005962 | 23.33° C | 42% | 1012 hPa | 0 mm | - | 810 W/m² | - |
| 1778005658 | 23.33° C | 43% | 1012 hPa | 0 mm | - | 855 W/m² | - |
* Rain latest hour (hover to see other rain measurements)
** Current wind speed in m/s (hover to see current wind gust speed)